sensor_id;sensor_type;location;lat;lon;timestamp;P1;durP1;ratioP1;P2;durP2;ratioP2
65172;SDS011;69059;52.218;5.172;2023-05-09T00:02:06;48.80;;;30.17;;
65172;SDS011;69059;52.218;5.172;2023-05-09T00:04:35;53.75;;;31.13;;
65172;SDS011;69059;52.218;5.172;2023-05-09T00:07:03;62.80;;;33.53;;
65172;SDS011;69059;52.218;5.172;2023-05-09T00:09:31;59.27;;;34.17;;
65172;SDS011;69059;52.218;5.172;2023-05-09T00:11:58;54.77;;;31.70;;
65172;SDS011;69059;52.218;5.172;2023-05-09T00:14:27;61.57;;;33.53;;
65172;SDS011;69059;52.218;5.172;2023-05-09T00:16:55;58.50;;;32.47;;
65172;SDS011;69059;52.218;5.172;2023-05-09T00:19:24;54.30;;;31.33;;
65172;SDS011;69059;52.218;5.172;2023-05-09T00:21:53;61.72;;;33.55;;
65172;SDS011;69059;52.218;5.172;2023-05-09T00:24:21;69.17;;;35.37;;
65172;SDS011;69059;52.218;5.172;2023-05-09T00:26:49;57.25;;;32.78;;
65172;SDS011;69059;52.218;5.172;2023-05-09T00:29:17;63.47;;;34.78;;
65172;SDS011;69059;52.218;5.172;2023-05-09T00:31:44;67.07;;;36.97;;
65172;SDS011;69059;52.218;5.172;2023-05-09T00:34:12;58.08;;;32.00;;
65172;SDS011;69059;52.218;5.172;2023-05-09T00:36:40;61.47;;;32.97;;
65172;SDS011;69059;52.218;5.172;2023-05-09T00:39:09;65.55;;;35.28;;
65172;SDS011;69059;52.218;5.172;2023-05-09T00:41:37;75.10;;;40.07;;
65172;SDS011;69059;52.218;5.172;2023-05-09T00:44:05;70.95;;;38.83;;
65172;SDS011;69059;52.218;5.172;2023-05-09T00:46:33;69.00;;;37.92;;
65172;SDS011;69059;52.218;5.172;2023-05-09T00:49:01;68.20;;;36.70;;
65172;SDS011;69059;52.218;5.172;2023-05-09T00:51:29;61.58;;;33.65;;
65172;SDS011;69059;52.218;5.172;2023-05-09T00:53:57;59.33;;;33.35;;
65172;SDS011;69059;52.218;5.172;2023-05-09T00:56:26;68.05;;;36.85;;
65172;SDS011;69059;52.218;5.172;2023-05-09T00:58:54;62.17;;;34.63;;
65172;SDS011;69059;52.218;5.172;2023-05-09T01:01:22;68.90;;;35.90;;
65172;SDS011;69059;52.218;5.172;2023-05-09T01:03:50;72.72;;;37.97;;
65172;SDS011;69059;52.218;5.172;2023-05-09T01:06:19;68.40;;;35.47;;
65172;SDS011;69059;52.218;5.172;2023-05-09T01:08:53;62.00;;;33.57;;
65172;SDS011;69059;52.218;5.172;2023-05-09T01:11:32;68.47;;;35.27;;
65172;SDS011;69059;52.218;5.172;2023-05-09T01:14:04;70.50;;;36.97;;
65172;SDS011;69059;52.218;5.172;2023-05-09T01:16:39;70.90;;;37.23;;
65172;SDS011;69059;52.218;5.172;2023-05-09T01:19:18;75.07;;;36.53;;
65172;SDS011;69059;52.218;5.172;2023-05-09T01:22:03;73.03;;;36.97;;
65172;SDS011;69059;52.218;5.172;2023-05-09T01:24:49;71.37;;;37.53;;
65172;SDS011;69059;52.218;5.172;2023-05-09T01:27:52;60.00;;;33.10;;
65172;SDS011;69059;52.218;5.172;2023-05-09T01:30:27;61.13;;;33.57;;
65172;SDS011;69059;52.218;5.172;2023-05-09T01:32:58;76.83;;;38.07;;
65172;SDS011;69059;52.218;5.172;2023-05-09T01:35:28;65.37;;;34.53;;
65172;SDS011;69059;52.218;5.172;2023-05-09T01:37:59;67.20;;;35.17;;
65172;SDS011;69059;52.218;5.172;2023-05-09T01:40:31;70.57;;;36.10;;
65172;SDS011;69059;52.218;5.172;2023-05-09T01:43:01;73.47;;;36.97;;
65172;SDS011;69059;52.218;5.172;2023-05-09T01:45:34;73.63;;;37.73;;
65172;SDS011;69059;52.218;5.172;2023-05-09T01:48:04;66.70;;;34.83;;
65172;SDS011;69059;52.218;5.172;2023-05-09T01:50:34;72.20;;;35.80;;
65172;SDS011;69059;52.218;5.172;2023-05-09T01:53:02;69.75;;;34.65;;
65172;SDS011;69059;52.218;5.172;2023-05-09T01:55:32;61.70;;;31.80;;
65172;SDS011;69059;52.218;5.172;2023-05-09T01:58:02;53.70;;;30.83;;
65172;SDS011;69059;52.218;5.172;2023-05-09T02:00:31;61.67;;;32.10;;
65172;SDS011;69059;52.218;5.172;2023-05-09T02:03:01;68.50;;;34.33;;
65172;SDS011;69059;52.218;5.172;2023-05-09T02:05:30;59.53;;;31.70;;
65172;SDS011;69059;52.218;5.172;2023-05-09T02:07:58;57.42;;;31.38;;
65172;SDS011;69059;52.218;5.172;2023-05-09T02:10:27;61.60;;;31.92;;
65172;SDS011;69059;52.218;5.172;2023-05-09T02:12:55;51.83;;;30.15;;
65172;SDS011;69059;52.218;5.172;2023-05-09T02:15:23;56.65;;;31.65;;
65172;SDS011;69059;52.218;5.172;2023-05-09T02:17:51;69.18;;;34.97;;
65172;SDS011;69059;52.218;5.172;2023-05-09T02:20:20;59.70;;;31.70;;
65172;SDS011;69059;52.218;5.172;2023-05-09T02:22:48;60.03;;;31.93;;
65172;SDS011;69059;52.218;5.172;2023-05-09T02:25:19;64.82;;;34.03;;
65172;SDS011;69059;52.218;5.172;2023-05-09T02:27:56;64.10;;;32.97;;
65172;SDS011;69059;52.218;5.172;2023-05-09T02:30:25;68.30;;;34.40;;
65172;SDS011;69059;52.218;5.172;2023-05-09T02:33:07;67.83;;;34.80;;
65172;SDS011;69059;52.218;5.172;2023-05-09T02:35:38;68.23;;;34.40;;
65172;SDS011;69059;52.218;5.172;2023-05-09T02:38:07;57.07;;;30.90;;
65172;SDS011;69059;52.218;5.172;2023-05-09T02:40:35;63.58;;;34.25;;
65172;SDS011;69059;52.218;5.172;2023-05-09T02:43:05;73.90;;;36.80;;
65172;SDS011;69059;52.218;5.172;2023-05-09T02:45:33;77.43;;;37.40;;
65172;SDS011;69059;52.218;5.172;2023-05-09T02:48:00;83.40;;;39.08;;
65172;SDS011;69059;52.218;5.172;2023-05-09T02:50:29;84.20;;;38.10;;
65172;SDS011;69059;52.218;5.172;2023-05-09T02:52:58;73.07;;;36.93;;
65172;SDS011;69059;52.218;5.172;2023-05-09T02:55:26;72.20;;;36.23;;
65172;SDS011;69059;52.218;5.172;2023-05-09T02:57:54;79.60;;;37.27;;
65172;SDS011;69059;52.218;5.172;2023-05-09T03:00:38;71.73;;;35.63;;
65172;SDS011;69059;52.218;5.172;2023-05-09T03:03:06;73.22;;;36.10;;
65172;SDS011;69059;52.218;5.172;2023-05-09T03:05:34;65.82;;;34.40;;
65172;SDS011;69059;52.218;5.172;2023-05-09T03:08:03;77.60;;;37.13;;
65172;SDS011;69059;52.218;5.172;2023-05-09T03:10:31;72.57;;;35.53;;
65172;SDS011;69059;52.218;5.172;2023-05-09T03:12:59;75.22;;;36.17;;
65172;SDS011;69059;52.218;5.172;2023-05-09T03:15:27;85.35;;;37.25;;
65172;SDS011;69059;52.218;5.172;2023-05-09T03:17:55;71.80;;;36.63;;
65172;SDS011;69059;52.218;5.172;2023-05-09T03:20:24;81.32;;;37.60;;
65172;SDS011;69059;52.218;5.172;2023-05-09T03:22:53;67.07;;;34.63;;
65172;SDS011;69059;52.218;5.172;2023-05-09T03:25:22;81.00;;;38.33;;
65172;SDS011;69059;52.218;5.172;2023-05-09T03:27:51;75.97;;;37.70;;
65172;SDS011;69059;52.218;5.172;2023-05-09T03:30:19;70.93;;;35.03;;
65172;SDS011;69059;52.218;5.172;2023-05-09T03:32:46;62.13;;;32.50;;
65172;SDS011;69059;52.218;5.172;2023-05-09T03:35:14;65.55;;;33.58;;
65172;SDS011;69059;52.218;5.172;2023-05-09T03:37:42;78.30;;;35.55;;
65172;SDS011;69059;52.218;5.172;2023-05-09T03:40:10;68.87;;;35.03;;
65172;SDS011;69059;52.218;5.172;2023-05-09T03:42:39;68.20;;;33.80;;
65172;SDS011;69059;52.218;5.172;2023-05-09T03:45:08;81.83;;;34.63;;
65172;SDS011;69059;52.218;5.172;2023-05-09T03:47:36;65.30;;;33.67;;
65172;SDS011;69059;52.218;5.172;2023-05-09T03:50:04;68.47;;;32.40;;
65172;SDS011;69059;52.218;5.172;2023-05-09T03:52:33;51.93;;;29.53;;
65172;SDS011;69059;52.218;5.172;2023-05-09T03:55:02;67.33;;;34.50;;
65172;SDS011;69059;52.218;5.172;2023-05-09T04:00:00;59.63;;;31.10;;
65172;SDS011;69059;52.218;5.172;2023-05-09T04:02:28;62.17;;;31.93;;
65172;SDS011;69059;52.218;5.172;2023-05-09T04:04:56;65.50;;;32.38;;
65172;SDS011;69059;52.218;5.172;2023-05-09T04:07:24;61.10;;;30.23;;
65172;SDS011;69059;52.218;5.172;2023-05-09T04:09:53;58.60;;;30.00;;
65172;SDS011;69059;52.218;5.172;2023-05-09T04:12:21;63.13;;;32.47;;
65172;SDS011;69059;52.218;5.172;2023-05-09T04:14:49;66.43;;;32.22;;
65172;SDS011;69059;52.218;5.172;2023-05-09T04:17:19;68.00;;;32.75;;
65172;SDS011;69059;52.218;5.172;2023-05-09T04:19:47;60.00;;;31.30;;
65172;SDS011;69059;52.218;5.172;2023-05-09T04:22:14;55.87;;;30.40;;
65172;SDS011;69059;52.218;5.172;2023-05-09T04:24:42;59.73;;;31.87;;
65172;SDS011;69059;52.218;5.172;2023-05-09T04:27:10;64.20;;;32.03;;
65172;SDS011;69059;52.218;5.172;2023-05-09T04:29:38;66.13;;;32.57;;
65172;SDS011;69059;52.218;5.172;2023-05-09T04:32:06;68.47;;;32.78;;
65172;SDS011;69059;52.218;5.172;2023-05-09T04:34:35;70.80;;;34.30;;
65172;SDS011;69059;52.218;5.172;2023-05-09T04:37:03;67.67;;;33.00;;
65172;SDS011;69059;52.218;5.172;2023-05-09T04:39:31;63.15;;;31.52;;
65172;SDS011;69059;52.218;5.172;2023-05-09T04:41:58;60.15;;;29.92;;
65172;SDS011;69059;52.218;5.172;2023-05-09T04:44:26;60.10;;;31.13;;
65172;SDS011;69059;52.218;5.172;2023-05-09T04:46:54;60.13;;;31.43;;
65172;SDS011;69059;52.218;5.172;2023-05-09T04:49:23;64.97;;;31.20;;
65172;SDS011;69059;52.218;5.172;2023-05-09T04:51:52;57.78;;;30.35;;
65172;SDS011;69059;52.218;5.172;2023-05-09T04:54:20;53.27;;;29.60;;
65172;SDS011;69059;52.218;5.172;2023-05-09T04:56:47;53.30;;;29.17;;
65172;SDS011;69059;52.218;5.172;2023-05-09T04:59:16;51.50;;;29.83;;
65172;SDS011;69059;52.218;5.172;2023-05-09T05:01:43;60.37;;;30.57;;
65172;SDS011;69059;52.218;5.172;2023-05-09T05:04:11;47.25;;;27.65;;
65172;SDS011;69059;52.218;5.172;2023-05-09T05:06:39;50.10;;;28.33;;
65172;SDS011;69059;52.218;5.172;2023-05-09T05:09:08;48.47;;;27.52;;
65172;SDS011;69059;52.218;5.172;2023-05-09T05:11:36;47.93;;;28.40;;
65172;SDS011;69059;52.218;5.172;2023-05-09T05:14:05;51.47;;;27.10;;
65172;SDS011;69059;52.218;5.172;2023-05-09T05:16:33;53.63;;;27.77;;
65172;SDS011;69059;52.218;5.172;2023-05-09T05:19:01;46.30;;;26.45;;
65172;SDS011;69059;52.218;5.172;2023-05-09T05:21:28;42.10;;;25.37;;
65172;SDS011;69059;52.218;5.172;2023-05-09T05:23:56;39.57;;;24.47;;
65172;SDS011;69059;52.218;5.172;2023-05-09T05:26:25;45.55;;;25.83;;
65172;SDS011;69059;52.218;5.172;2023-05-09T05:28:54;41.70;;;25.00;;
65172;SDS011;69059;52.218;5.172;2023-05-09T05:31:22;41.00;;;25.35;;
65172;SDS011;69059;52.218;5.172;2023-05-09T05:33:50;40.90;;;24.48;;
65172;SDS011;69059;52.218;5.172;2023-05-09T05:36:18;41.60;;;24.57;;
65172;SDS011;69059;52.218;5.172;2023-05-09T05:38:45;41.63;;;25.00;;
65172;SDS011;69059;52.218;5.172;2023-05-09T05:41:13;40.40;;;24.23;;
65172;SDS011;69059;52.218;5.172;2023-05-09T05:43:42;35.43;;;22.07;;
65172;SDS011;69059;52.218;5.172;2023-05-09T05:46:10;35.53;;;21.93;;
65172;SDS011;69059;52.218;5.172;2023-05-09T05:48:37;34.92;;;22.33;;
65172;SDS011;69059;52.218;5.172;2023-05-09T05:51:05;36.63;;;23.67;;
65172;SDS011;69059;52.218;5.172;2023-05-09T05:53:33;31.70;;;21.93;;
65172;SDS011;69059;52.218;5.172;2023-05-09T05:56:01;34.05;;;21.42;;
65172;SDS011;69059;52.218;5.172;2023-05-09T05:58:28;34.60;;;22.20;;
65172;SDS011;69059;52.218;5.172;2023-05-09T06:00:58;35.35;;;21.33;;
65172;SDS011;69059;52.218;5.172;2023-05-09T06:03:25;29.33;;;20.40;;
65172;SDS011;69059;52.218;5.172;2023-05-09T06:05:53;32.58;;;20.90;;
65172;SDS011;69059;52.218;5.172;2023-05-09T06:08:22;29.80;;;20.05;;
65172;SDS011;69059;52.218;5.172;2023-05-09T06:10:49;30.97;;;20.10;;
65172;SDS011;69059;52.218;5.172;2023-05-09T06:13:17;30.27;;;19.43;;
65172;SDS011;69059;52.218;5.172;2023-05-09T06:15:45;30.03;;;20.43;;
65172;SDS011;69059;52.218;5.172;2023-05-09T06:18:14;30.65;;;19.58;;
65172;SDS011;69059;52.218;5.172;2023-05-09T06:20:42;30.00;;;21.00;;
65172;SDS011;69059;52.218;5.172;2023-05-09T06:23:09;32.27;;;20.20;;
65172;SDS011;69059;52.218;5.172;2023-05-09T06:25:37;34.50;;;22.23;;
65172;SDS011;69059;52.218;5.172;2023-05-09T06:28:05;29.90;;;20.30;;
65172;SDS011;69059;52.218;5.172;2023-05-09T06:30:32;31.37;;;20.17;;
65172;SDS011;69059;52.218;5.172;2023-05-09T06:33:01;31.90;;;20.73;;
65172;SDS011;69059;52.218;5.172;2023-05-09T06:35:30;32.58;;;21.60;;
65172;SDS011;69059;52.218;5.172;2023-05-09T06:37:58;33.47;;;20.80;;
65172;SDS011;69059;52.218;5.172;2023-05-09T06:40:26;34.90;;;22.35;;
65172;SDS011;69059;52.218;5.172;2023-05-09T06:42:53;33.90;;;21.47;;
65172;SDS011;69059;52.218;5.172;2023-05-09T06:45:21;30.77;;;21.40;;
65172;SDS011;69059;52.218;5.172;2023-05-09T06:47:49;34.38;;;22.17;;
65172;SDS011;69059;52.218;5.172;2023-05-09T06:50:17;42.50;;;22.93;;
65172;SDS011;69059;52.218;5.172;2023-05-09T06:52:46;35.30;;;22.10;;
65172;SDS011;69059;52.218;5.172;2023-05-09T06:55:13;38.40;;;22.27;;
65172;SDS011;69059;52.218;5.172;2023-05-09T06:57:42;35.33;;;22.52;;
65172;SDS011;69059;52.218;5.172;2023-05-09T07:00:10;36.40;;;22.48;;
65172;SDS011;69059;52.218;5.172;2023-05-09T07:02:38;36.97;;;23.73;;
65172;SDS011;69059;52.218;5.172;2023-05-09T07:05:07;36.73;;;23.00;;
65172;SDS011;69059;52.218;5.172;2023-05-09T07:10:06;39.40;;;22.77;;
65172;SDS011;69059;52.218;5.172;2023-05-09T07:12:38;36.73;;;22.57;;
65172;SDS011;69059;52.218;5.172;2023-05-09T07:15:06;40.33;;;24.27;;
65172;SDS011;69059;52.218;5.172;2023-05-09T07:17:35;38.63;;;23.03;;
65172;SDS011;69059;52.218;5.172;2023-05-09T07:20:03;37.90;;;24.80;;
65172;SDS011;69059;52.218;5.172;2023-05-09T07:22:32;38.80;;;24.13;;
65172;SDS011;69059;52.218;5.172;2023-05-09T07:25:03;47.07;;;25.80;;
65172;SDS011;69059;52.218;5.172;2023-05-09T07:27:34;36.30;;;24.33;;
65172;SDS011;69059;52.218;5.172;2023-05-09T07:30:02;42.90;;;25.98;;
65172;SDS011;69059;52.218;5.172;2023-05-09T07:32:30;36.38;;;23.65;;
65172;SDS011;69059;52.218;5.172;2023-05-09T07:34:58;35.70;;;22.47;;
65172;SDS011;69059;52.218;5.172;2023-05-09T07:37:25;41.10;;;24.83;;
65172;SDS011;69059;52.218;5.172;2023-05-09T07:39:53;41.97;;;25.70;;
65172;SDS011;69059;52.218;5.172;2023-05-09T07:42:22;35.25;;;24.33;;
65172;SDS011;69059;52.218;5.172;2023-05-09T07:44:50;37.60;;;23.03;;
65172;SDS011;69059;52.218;5.172;2023-05-09T07:47:18;38.22;;;24.13;;
65172;SDS011;69059;52.218;5.172;2023-05-09T07:49:46;35.08;;;24.33;;
65172;SDS011;69059;52.218;5.172;2023-05-09T07:52:14;33.57;;;22.70;;
65172;SDS011;69059;52.218;5.172;2023-05-09T07:54:42;34.83;;;23.30;;
65172;SDS011;69059;52.218;5.172;2023-05-09T07:57:10;36.75;;;23.50;;
65172;SDS011;69059;52.218;5.172;2023-05-09T07:59:39;32.33;;;22.27;;
65172;SDS011;69059;52.218;5.172;2023-05-09T08:02:07;34.20;;;22.97;;
65172;SDS011;69059;52.218;5.172;2023-05-09T08:04:36;36.42;;;22.70;;
65172;SDS011;69059;52.218;5.172;2023-05-09T08:07:06;32.53;;;23.30;;
65172;SDS011;69059;52.218;5.172;2023-05-09T08:09:34;30.40;;;22.57;;
65172;SDS011;69059;52.218;5.172;2023-05-09T08:12:02;33.90;;;21.33;;
65172;SDS011;69059;52.218;5.172;2023-05-09T08:14:31;33.55;;;21.38;;
65172;SDS011;69059;52.218;5.172;2023-05-09T08:17:00;29.83;;;21.17;;
65172;SDS011;69059;52.218;5.172;2023-05-09T08:19:28;32.57;;;22.13;;
65172;SDS011;69059;52.218;5.172;2023-05-09T08:21:55;28.47;;;20.60;;
65172;SDS011;69059;52.218;5.172;2023-05-09T08:24:23;27.55;;;19.65;;
65172;SDS011;69059;52.218;5.172;2023-05-09T08:26:51;30.55;;;22.42;;
65172;SDS011;69059;52.218;5.172;2023-05-09T08:29:19;29.77;;;21.07;;
65172;SDS011;69059;52.218;5.172;2023-05-09T08:31:46;27.33;;;19.63;;
65172;SDS011;69059;52.218;5.172;2023-05-09T08:34:16;27.73;;;20.88;;
65172;SDS011;69059;52.218;5.172;2023-05-09T08:36:44;28.80;;;20.37;;
65172;SDS011;69059;52.218;5.172;2023-05-09T08:39:12;25.48;;;19.88;;
65172;SDS011;69059;52.218;5.172;2023-05-09T08:41:39;26.23;;;19.63;;
65172;SDS011;69059;52.218;5.172;2023-05-09T08:44:08;22.60;;;18.63;;
65172;SDS011;69059;52.218;5.172;2023-05-09T08:46:37;24.80;;;18.70;;
65172;SDS011;69059;52.218;5.172;2023-05-09T08:49:09;22.60;;;17.63;;
65172;SDS011;69059;52.218;5.172;2023-05-09T08:51:38;24.13;;;17.45;;
65172;SDS011;69059;52.218;5.172;2023-05-09T08:54:06;22.47;;;17.03;;
65172;SDS011;69059;52.218;5.172;2023-05-09T08:56:34;24.70;;;18.13;;
65172;SDS011;69059;52.218;5.172;2023-05-09T08:59:02;20.63;;;15.70;;
65172;SDS011;69059;52.218;5.172;2023-05-09T09:01:32;20.67;;;16.80;;
65172;SDS011;69059;52.218;5.172;2023-05-09T09:04:01;20.00;;;14.67;;
65172;SDS011;69059;52.218;5.172;2023-05-09T09:06:31;20.97;;;15.10;;
65172;SDS011;69059;52.218;5.172;2023-05-09T09:09:02;22.08;;;16.05;;
65172;SDS011;69059;52.218;5.172;2023-05-09T09:11:32;15.63;;;13.63;;
65172;SDS011;69059;52.218;5.172;2023-05-09T09:14:04;19.67;;;15.87;;
65172;SDS011;69059;52.218;5.172;2023-05-09T09:16:36;18.97;;;14.90;;
65172;SDS011;69059;52.218;5.172;2023-05-09T09:19:06;20.97;;;15.17;;
65172;SDS011;69059;52.218;5.172;2023-05-09T09:21:38;21.40;;;15.93;;
65172;SDS011;69059;52.218;5.172;2023-05-09T09:24:09;16.17;;;13.87;;
65172;SDS011;69059;52.218;5.172;2023-05-09T09:26:46;18.83;;;14.93;;
65172;SDS011;69059;52.218;5.172;2023-05-09T09:29:16;17.37;;;14.10;;
65172;SDS011;69059;52.218;5.172;2023-05-09T09:31:44;16.90;;;14.83;;
65172;SDS011;69059;52.218;5.172;2023-05-09T09:34:20;15.73;;;13.13;;
65172;SDS011;69059;52.218;5.172;2023-05-09T09:36:49;16.17;;;14.00;;
65172;SDS011;69059;52.218;5.172;2023-05-09T09:39:18;19.73;;;14.80;;
65172;SDS011;69059;52.218;5.172;2023-05-09T09:41:47;18.57;;;14.73;;
65172;SDS011;69059;52.218;5.172;2023-05-09T09:44:15;17.58;;;14.90;;
65172;SDS011;69059;52.218;5.172;2023-05-09T09:46:44;18.87;;;14.20;;
65172;SDS011;69059;52.218;5.172;2023-05-09T09:49:14;17.83;;;15.90;;
65172;SDS011;69059;52.218;5.172;2023-05-09T09:51:43;18.80;;;15.50;;
65172;SDS011;69059;52.218;5.172;2023-05-09T09:54:11;17.73;;;14.63;;
65172;SDS011;69059;52.218;5.172;2023-05-09T09:56:44;19.30;;;15.38;;
65172;SDS011;69059;52.218;5.172;2023-05-09T09:59:13;19.33;;;15.07;;
65172;SDS011;69059;52.218;5.172;2023-05-09T10:01:52;20.37;;;15.40;;
65172;SDS011;69059;52.218;5.172;2023-05-09T10:04:25;17.73;;;14.90;;
65172;SDS011;69059;52.218;5.172;2023-05-09T10:06:54;17.97;;;15.07;;
65172;SDS011;69059;52.218;5.172;2023-05-09T10:09:23;16.33;;;14.40;;
65172;SDS011;69059;52.218;5.172;2023-05-09T10:11:54;16.57;;;13.40;;
65172;SDS011;69059;52.218;5.172;2023-05-09T10:14:22;17.07;;;14.50;;
65172;SDS011;69059;52.218;5.172;2023-05-09T10:16:53;17.03;;;14.00;;
65172;SDS011;69059;52.218;5.172;2023-05-09T10:19:22;18.60;;;15.70;;
65172;SDS011;69059;52.218;5.172;2023-05-09T10:21:52;17.53;;;15.50;;
65172;SDS011;69059;52.218;5.172;2023-05-09T10:24:25;18.47;;;14.23;;
65172;SDS011;69059;52.218;5.172;2023-05-09T10:26:58;16.93;;;13.90;;
65172;SDS011;69059;52.218;5.172;2023-05-09T10:29:33;16.30;;;13.50;;
65172;SDS011;69059;52.218;5.172;2023-05-09T10:32:04;18.80;;;14.00;;
65172;SDS011;69059;52.218;5.172;2023-05-09T10:34:40;16.30;;;14.00;;
65172;SDS011;69059;52.218;5.172;2023-05-09T10:37:14;17.80;;;13.17;;
65172;SDS011;69059;52.218;5.172;2023-05-09T10:42:11;14.57;;;12.00;;
65172;SDS011;69059;52.218;5.172;2023-05-09T10:44:40;16.37;;;12.53;;
65172;SDS011;69059;52.218;5.172;2023-05-09T10:47:09;14.83;;;12.47;;
65172;SDS011;69059;52.218;5.172;2023-05-09T10:52:06;15.38;;;11.95;;
65172;SDS011;69059;52.218;5.172;2023-05-09T10:54:35;15.70;;;11.60;;
65172;SDS011;69059;52.218;5.172;2023-05-09T10:57:04;15.87;;;11.40;;
65172;SDS011;69059;52.218;5.172;2023-05-09T10:59:34;15.83;;;12.13;;
65172;SDS011;69059;52.218;5.172;2023-05-09T11:02:09;15.50;;;11.87;;
65172;SDS011;69059;52.218;5.172;2023-05-09T11:04:39;13.30;;;10.70;;
65172;SDS011;69059;52.218;5.172;2023-05-09T11:07:20;14.45;;;12.82;;
65172;SDS011;69059;52.218;5.172;2023-05-09T11:09:51;15.60;;;11.30;;
65172;SDS011;69059;52.218;5.172;2023-05-09T11:14:51;19.13;;;12.53;;
65172;SDS011;69059;52.218;5.172;2023-05-09T11:17:28;14.17;;;11.40;;
65172;SDS011;69059;52.218;5.172;2023-05-09T11:19:58;14.90;;;12.27;;
65172;SDS011;69059;52.218;5.172;2023-05-09T11:22:28;14.70;;;11.67;;
65172;SDS011;69059;52.218;5.172;2023-05-09T11:24:58;15.57;;;12.77;;
65172;SDS011;69059;52.218;5.172;2023-05-09T11:27:35;20.43;;;13.90;;
65172;SDS011;69059;52.218;5.172;2023-05-09T11:30:07;17.93;;;12.63;;
65172;SDS011;69059;52.218;5.172;2023-05-09T11:32:40;19.07;;;14.40;;
65172;SDS011;69059;52.218;5.172;2023-05-09T11:35:10;13.47;;;11.80;;
65172;SDS011;69059;52.218;5.172;2023-05-09T11:37:45;17.17;;;13.53;;
65172;SDS011;69059;52.218;5.172;2023-05-09T11:40:14;18.83;;;13.50;;
65172;SDS011;69059;52.218;5.172;2023-05-09T11:42:45;16.23;;;13.17;;
65172;SDS011;69059;52.218;5.172;2023-05-09T11:45:15;13.93;;;12.43;;
65172;SDS011;69059;52.218;5.172;2023-05-09T11:47:44;13.17;;;11.47;;
65172;SDS011;69059;52.218;5.172;2023-05-09T11:52:40;15.83;;;12.50;;
65172;SDS011;69059;52.218;5.172;2023-05-09T11:55:10;15.93;;;12.95;;
65172;SDS011;69059;52.218;5.172;2023-05-09T11:57:39;15.37;;;12.97;;
65172;SDS011;69059;52.218;5.172;2023-05-09T12:05:06;15.20;;;11.67;;
65172;SDS011;69059;52.218;5.172;2023-05-09T12:07:36;13.37;;;11.90;;
65172;SDS011;69059;52.218;5.172;2023-05-09T12:10:05;14.83;;;12.90;;
65172;SDS011;69059;52.218;5.172;2023-05-09T12:12:34;15.87;;;13.53;;
65172;SDS011;69059;52.218;5.172;2023-05-09T12:15:03;16.25;;;13.07;;
65172;SDS011;69059;52.218;5.172;2023-05-09T12:17:33;12.70;;;11.40;;
65172;SDS011;69059;52.218;5.172;2023-05-09T12:20:03;17.50;;;13.55;;
65172;SDS011;69059;52.218;5.172;2023-05-09T12:22:31;16.70;;;13.80;;
65172;SDS011;69059;52.218;5.172;2023-05-09T12:24:59;17.55;;;13.93;;
65172;SDS011;69059;52.218;5.172;2023-05-09T12:27:29;16.30;;;12.93;;
65172;SDS011;69059;52.218;5.172;2023-05-09T12:29:58;18.70;;;14.53;;
65172;SDS011;69059;52.218;5.172;2023-05-09T12:34:58;16.20;;;14.50;;
65172;SDS011;69059;52.218;5.172;2023-05-09T12:37:29;15.88;;;13.02;;
65172;SDS011;69059;52.218;5.172;2023-05-09T12:40:02;15.70;;;13.23;;
65172;SDS011;69059;52.218;5.172;2023-05-09T12:42:31;15.83;;;13.73;;
65172;SDS011;69059;52.218;5.172;2023-05-09T12:45:00;15.87;;;12.87;;
65172;SDS011;69059;52.218;5.172;2023-05-09T12:47:29;15.30;;;13.05;;
65172;SDS011;69059;52.218;5.172;2023-05-09T12:49:57;12.77;;;11.47;;
65172;SDS011;69059;52.218;5.172;2023-05-09T12:52:31;15.05;;;13.23;;
65172;SDS011;69059;52.218;5.172;2023-05-09T12:55:17;14.53;;;13.03;;
65172;SDS011;69059;52.218;5.172;2023-05-09T12:57:55;14.53;;;12.47;;
65172;SDS011;69059;52.218;5.172;2023-05-09T13:00:24;15.00;;;12.80;;
65172;SDS011;69059;52.218;5.172;2023-05-09T13:02:52;15.38;;;13.10;;
65172;SDS011;69059;52.218;5.172;2023-05-09T13:05:21;16.85;;;12.48;;
65172;SDS011;69059;52.218;5.172;2023-05-09T13:10:19;16.00;;;13.20;;
65172;SDS011;69059;52.218;5.172;2023-05-09T13:12:50;18.27;;;14.07;;
65172;SDS011;69059;52.218;5.172;2023-05-09T13:15:19;14.30;;;12.80;;
65172;SDS011;69059;52.218;5.172;2023-05-09T13:17:48;15.77;;;12.40;;
65172;SDS011;69059;52.218;5.172;2023-05-09T13:20:17;14.43;;;12.70;;
65172;SDS011;69059;52.218;5.172;2023-05-09T13:22:46;13.70;;;12.30;;
65172;SDS011;69059;52.218;5.172;2023-05-09T13:25:15;12.38;;;10.82;;
65172;SDS011;69059;52.218;5.172;2023-05-09T13:27:43;15.27;;;12.53;;
65172;SDS011;69059;52.218;5.172;2023-05-09T13:30:11;14.32;;;12.65;;
65172;SDS011;69059;52.218;5.172;2023-05-09T13:32:41;13.87;;;12.20;;
65172;SDS011;69059;52.218;5.172;2023-05-09T13:35:09;12.32;;;11.07;;
65172;SDS011;69059;52.218;5.172;2023-05-09T13:37:37;11.50;;;10.32;;
65172;SDS011;69059;52.218;5.172;2023-05-09T13:40:05;14.25;;;11.50;;
65172;SDS011;69059;52.218;5.172;2023-05-09T13:42:35;12.03;;;10.83;;
65172;SDS011;69059;52.218;5.172;2023-05-09T13:45:03;14.07;;;11.67;;
65172;SDS011;69059;52.218;5.172;2023-05-09T13:47:32;12.87;;;11.57;;
65172;SDS011;69059;52.218;5.172;2023-05-09T13:50:02;10.75;;;9.65;;
65172;SDS011;69059;52.218;5.172;2023-05-09T13:52:30;11.65;;;10.55;;
65172;SDS011;69059;52.218;5.172;2023-05-09T13:54:58;11.88;;;10.68;;
65172;SDS011;69059;52.218;5.172;2023-05-09T13:57:26;15.87;;;11.10;;
65172;SDS011;69059;52.218;5.172;2023-05-09T13:59:55;15.55;;;12.02;;
65172;SDS011;69059;52.218;5.172;2023-05-09T14:02:23;10.23;;;9.20;;
65172;SDS011;69059;52.218;5.172;2023-05-09T14:04:51;25.10;;;10.10;;
65172;SDS011;69059;52.218;5.172;2023-05-09T14:07:19;13.43;;;8.43;;
65172;SDS011;69059;52.218;5.172;2023-05-09T14:09:47;8.48;;;7.68;;
65172;SDS011;69059;52.218;5.172;2023-05-09T14:12:24;9.67;;;8.17;;
65172;SDS011;69059;52.218;5.172;2023-05-09T14:14:52;10.52;;;9.00;;
65172;SDS011;69059;52.218;5.172;2023-05-09T14:17:21;8.90;;;8.02;;
65172;SDS011;69059;52.218;5.172;2023-05-09T14:19:49;9.23;;;7.20;;
65172;SDS011;69059;52.218;5.172;2023-05-09T14:22:16;8.15;;;7.32;;
65172;SDS011;69059;52.218;5.172;2023-05-09T14:24:44;8.73;;;7.88;;
65172;SDS011;69059;52.218;5.172;2023-05-09T14:27:12;8.48;;;7.63;;
65172;SDS011;69059;52.218;5.172;2023-05-09T14:29:40;8.13;;;7.43;;
65172;SDS011;69059;52.218;5.172;2023-05-09T14:32:08;9.13;;;8.30;;
65172;SDS011;69059;52.218;5.172;2023-05-09T14:34:39;8.53;;;7.73;;
65172;SDS011;69059;52.218;5.172;2023-05-09T14:37:07;10.05;;;9.02;;
65172;SDS011;69059;52.218;5.172;2023-05-09T14:39:38;11.50;;;9.27;;
65172;SDS011;69059;52.218;5.172;2023-05-09T14:42:07;9.45;;;8.45;;
65172;SDS011;69059;52.218;5.172;2023-05-09T14:44:36;10.77;;;9.10;;
65172;SDS011;69059;52.218;5.172;2023-05-09T14:47:05;11.02;;;9.90;;
65172;SDS011;69059;52.218;5.172;2023-05-09T14:49:35;10.77;;;9.00;;
65172;SDS011;69059;52.218;5.172;2023-05-09T14:52:05;9.53;;;8.63;;
65172;SDS011;69059;52.218;5.172;2023-05-09T14:54:33;8.77;;;7.97;;
65172;SDS011;69059;52.218;5.172;2023-05-09T14:57:01;8.32;;;7.53;;
65172;SDS011;69059;52.218;5.172;2023-05-09T14:59:32;8.93;;;7.93;;
65172;SDS011;69059;52.218;5.172;2023-05-09T15:02:02;9.57;;;8.67;;